sensor_id;sensor_type;location;lat;lon;timestamp;pressure;altitude;pressure_sealevel;temperature;humidity
49194;BME280;35029;50.804;12.866;2023-09-19T00:00:46;96954.66;;;17.03;100.00
49194;BME280;35029;50.804;12.866;2023-09-19T00:03:15;96962.47;;;17.10;100.00
49194;BME280;35029;50.804;12.866;2023-09-19T00:05:40;96971.56;;;17.09;100.00
49194;BME280;35029;50.804;12.866;2023-09-19T00:08:10;96969.41;;;17.06;100.00
49194;BME280;35029;50.804;12.866;2023-09-19T00:10:35;96970.75;;;17.09;100.00
49194;BME280;35029;50.804;12.866;2023-09-19T00:13:02;96943.56;;;16.89;100.00
49194;BME280;35029;50.804;12.866;2023-09-19T00:15:40;96971.84;;;17.13;100.00
49194;BME280;35029;50.804;12.866;2023-09-19T00:18:07;96962.69;;;17.03;100.00
49194;BME280;35029;50.804;12.866;2023-09-19T00:20:36;96966.56;;;17.18;100.00
49194;BME280;35029;50.804;12.866;2023-09-19T00:23:02;96931.09;;;17.05;100.00
49194;BME280;35029;50.804;12.866;2023-09-19T00:25:37;96935.44;;;17.12;100.00
49194;BME280;35029;50.804;12.866;2023-09-19T00:28:04;96942.97;;;17.20;100.00
49194;BME280;35029;50.804;12.866;2023-09-19T00:30:30;96951.91;;;17.31;100.00
49194;BME280;35029;50.804;12.866;2023-09-19T00:32:56;96968.81;;;17.36;100.00
49194;BME280;35029;50.804;12.866;2023-09-19T00:35:22;96946.22;;;17.27;100.00
49194;BME280;35029;50.804;12.866;2023-09-19T00:37:49;96960.25;;;17.39;100.00
49194;BME280;35029;50.804;12.866;2023-09-19T00:40:15;96947.84;;;17.28;100.00
49194;BME280;35029;50.804;12.866;2023-09-19T00:42:47;96971.47;;;17.36;100.00
49194;BME280;35029;50.804;12.866;2023-09-19T00:45:15;96976.56;;;17.38;100.00
49194;BME280;35029;50.804;12.866;2023-09-19T00:47:42;96970.06;;;17.29;100.00
49194;BME280;35029;50.804;12.866;2023-09-19T00:50:09;96981.41;;;17.36;100.00
49194;BME280;35029;50.804;12.866;2023-09-19T00:52:39;96976.78;;;17.31;100.00
49194;BME280;35029;50.804;12.866;2023-09-19T00:55:07;96976.88;;;17.42;100.00
49194;BME280;35029;50.804;12.866;2023-09-19T00:57:33;96975.22;;;17.35;100.00
49194;BME280;35029;50.804;12.866;2023-09-19T01:00:00;96979.81;;;17.40;100.00
49194;BME280;35029;50.804;12.866;2023-09-19T01:02:31;96964.22;;;17.32;100.00
49194;BME280;35029;50.804;12.866;2023-09-19T01:04:57;96954.00;;;17.29;100.00
49194;BME280;35029;50.804;12.866;2023-09-19T01:07:23;96975.50;;;17.39;100.00
49194;BME280;35029;50.804;12.866;2023-09-19T01:09:49;96949.13;;;17.20;100.00
49194;BME280;35029;50.804;12.866;2023-09-19T01:12:19;96977.41;;;17.38;100.00
49194;BME280;35029;50.804;12.866;2023-09-19T01:15:04;96982.75;;;17.38;100.00
49194;BME280;35029;50.804;12.866;2023-09-19T01:17:35;96982.75;;;17.38;100.00
49194;BME280;35029;50.804;12.866;2023-09-19T01:23:26;96995.38;;;17.43;100.00
49194;BME280;35029;50.804;12.866;2023-09-19T01:26:17;96999.41;;;17.46;99.28
49194;BME280;35029;50.804;12.866;2023-09-19T01:29:01;97012.00;;;17.45;99.67
49194;BME280;35029;50.804;12.866;2023-09-19T01:31:33;97006.03;;;17.38;100.00
49194;BME280;35029;50.804;12.866;2023-09-19T01:34:03;96998.22;;;17.31;100.00
49194;BME280;35029;50.804;12.866;2023-09-19T01:36:35;96997.66;;;17.24;100.00
49194;BME280;35029;50.804;12.866;2023-09-19T01:39:06;96975.63;;;17.17;100.00
49194;BME280;35029;50.804;12.866;2023-09-19T01:44:43;96991.72;;;17.17;100.00
49194;BME280;35029;50.804;12.866;2023-09-19T01:47:31;96990.94;;;17.21;100.00
49194;BME280;35029;50.804;12.866;2023-09-19T01:52:36;96991.44;;;17.18;100.00
49194;BME280;35029;50.804;12.866;2023-09-19T01:55:09;97010.44;;;17.17;100.00
49194;BME280;35029;50.804;12.866;2023-09-19T01:57:52;96999.78;;;17.22;100.00
49194;BME280;35029;50.804;12.866;2023-09-19T02:00:21;97011.00;;;17.19;100.00
49194;BME280;35029;50.804;12.866;2023-09-19T02:02:49;97006.09;;;17.11;100.00
49194;BME280;35029;50.804;12.866;2023-09-19T02:05:23;97003.94;;;17.08;100.00
49194;BME280;35029;50.804;12.866;2023-09-19T02:07:53;97007.59;;;16.96;100.00
49194;BME280;35029;50.804;12.866;2023-09-19T02:10:19;96993.66;;;16.94;100.00
49194;BME280;35029;50.804;12.866;2023-09-19T02:12:45;97015.66;;;17.01;100.00
49194;BME280;35029;50.804;12.866;2023-09-19T02:15:13;97014.34;;;17.04;100.00
49194;BME280;35029;50.804;12.866;2023-09-19T02:17:42;97011.84;;;16.92;100.00
49194;BME280;35029;50.804;12.866;2023-09-19T02:20:10;97025.72;;;16.89;100.00
49194;BME280;35029;50.804;12.866;2023-09-19T02:22:41;97014.03;;;16.95;100.00
49194;BME280;35029;50.804;12.866;2023-09-19T02:25:07;97008.34;;;16.92;100.00
49194;BME280;35029;50.804;12.866;2023-09-19T02:27:33;97024.47;;;16.97;100.00
49194;BME280;35029;50.804;12.866;2023-09-19T02:29:59;97027.72;;;16.99;100.00
49194;BME280;35029;50.804;12.866;2023-09-19T02:32:27;97025.25;;;16.97;100.00
49194;BME280;35029;50.804;12.866;2023-09-19T02:34:55;97014.72;;;16.85;100.00
49194;BME280;35029;50.804;12.866;2023-09-19T02:37:21;97026.88;;;16.98;100.00
49194;BME280;35029;50.804;12.866;2023-09-19T02:39:46;97027.25;;;16.80;100.00
49194;BME280;35029;50.804;12.866;2023-09-19T02:42:12;97037.44;;;16.83;100.00
49194;BME280;35029;50.804;12.866;2023-09-19T02:44:38;97044.63;;;16.82;100.00
49194;BME280;35029;50.804;12.866;2023-09-19T02:47:04;97045.97;;;16.80;100.00
49194;BME280;35029;50.804;12.866;2023-09-19T02:49:29;97046.78;;;16.80;100.00
49194;BME280;35029;50.804;12.866;2023-09-19T02:51:55;97055.44;;;16.65;100.00
49194;BME280;35029;50.804;12.866;2023-09-19T02:54:20;97045.06;;;16.69;100.00
49194;BME280;35029;50.804;12.866;2023-09-19T02:56:47;97063.81;;;16.74;100.00
49194;BME280;35029;50.804;12.866;2023-09-19T02:59:12;97065.38;;;16.70;100.00
49194;BME280;35029;50.804;12.866;2023-09-19T03:01:38;97042.78;;;16.55;100.00
49194;BME280;35029;50.804;12.866;2023-09-19T03:04:04;97061.91;;;16.69;100.00
49194;BME280;35029;50.804;12.866;2023-09-19T03:06:31;97072.16;;;16.78;100.00
49194;BME280;35029;50.804;12.866;2023-09-19T03:08:58;97071.81;;;16.69;100.00
49194;BME280;35029;50.804;12.866;2023-09-19T03:11:25;97077.16;;;16.69;100.00
49194;BME280;35029;50.804;12.866;2023-09-19T03:13:55;97067.44;;;16.63;100.00
49194;BME280;35029;50.804;12.866;2023-09-19T03:16:21;97061.50;;;16.55;100.00
49194;BME280;35029;50.804;12.866;2023-09-19T03:18:49;97081.03;;;16.56;100.00
49194;BME280;35029;50.804;12.866;2023-09-19T03:21:16;97068.16;;;16.53;100.00
49194;BME280;35029;50.804;12.866;2023-09-19T03:23:45;97059.53;;;16.46;100.00
49194;BME280;35029;50.804;12.866;2023-09-19T03:26:12;97072.13;;;16.50;100.00
49194;BME280;35029;50.804;12.866;2023-09-19T03:28:38;97069.28;;;16.57;100.00
49194;BME280;35029;50.804;12.866;2023-09-19T03:31:05;97082.47;;;16.64;100.00
49194;BME280;35029;50.804;12.866;2023-09-19T03:33:33;97087.56;;;16.65;100.00
49194;BME280;35029;50.804;12.866;2023-09-19T03:36:01;97098.56;;;16.47;100.00
49194;BME280;35029;50.804;12.866;2023-09-19T03:38:30;97102.88;;;16.48;100.00
49194;BME280;35029;50.804;12.866;2023-09-19T03:40:57;97090.78;;;16.45;100.00
49194;BME280;35029;50.804;12.866;2023-09-19T03:43:22;97089.75;;;16.46;100.00
49194;BME280;35029;50.804;12.866;2023-09-19T03:45:48;97088.69;;;16.47;100.00
49194;BME280;35029;50.804;12.866;2023-09-19T03:48:14;97086.50;;;16.44;100.00
49194;BME280;35029;50.804;12.866;2023-09-19T03:50:40;97070.88;;;16.36;100.00
49194;BME280;35029;50.804;12.866;2023-09-19T03:53:05;97082.66;;;16.35;100.00
49194;BME280;35029;50.804;12.866;2023-09-19T03:55:33;97082.94;;;16.38;100.00
49194;BME280;35029;50.804;12.866;2023-09-19T03:58:04;97072.41;;;16.27;100.00
49194;BME280;35029;50.804;12.866;2023-09-19T04:00:30;97077.06;;;16.36;100.00
49194;BME280;35029;50.804;12.866;2023-09-19T04:02:56;97074.38;;;16.36;100.00
49194;BME280;35029;50.804;12.866;2023-09-19T04:05:22;97066.66;;;16.18;100.00
49194;BME280;35029;50.804;12.866;2023-09-19T04:07:48;97082.84;;;16.28;100.00
49194;BME280;35029;50.804;12.866;2023-09-19T04:10:15;97081.34;;;16.37;100.00
49194;BME280;35029;50.804;12.866;2023-09-19T04:12:50;97068.66;;;16.28;100.00
49194;BME280;35029;50.804;12.866;2023-09-19T04:15:16;97074.88;;;16.33;100.00
49194;BME280;35029;50.804;12.866;2023-09-19T04:17:42;97065.44;;;16.26;100.00
49194;BME280;35029;50.804;12.866;2023-09-19T04:20:08;97083.38;;;16.30;100.00
49194;BME280;35029;50.804;12.866;2023-09-19T04:22:34;97092.28;;;16.36;100.00
49194;BME280;35029;50.804;12.866;2023-09-19T04:25:00;97104.34;;;16.38;100.00
49194;BME280;35029;50.804;12.866;2023-09-19T04:27:25;97099.50;;;16.35;100.00
49194;BME280;35029;50.804;12.866;2023-09-19T04:29:51;97108.56;;;16.34;100.00
49194;BME280;35029;50.804;12.866;2023-09-19T04:32:18;97111.56;;;16.38;100.00
49194;BME280;35029;50.804;12.866;2023-09-19T04:34:43;97110.72;;;16.32;100.00
49194;BME280;35029;50.804;12.866;2023-09-19T04:37:09;97123.03;;;16.33;100.00
49194;BME280;35029;50.804;12.866;2023-09-19T04:39:36;97126.25;;;16.35;100.00
49194;BME280;35029;50.804;12.866;2023-09-19T04:42:01;97112.34;;;16.16;100.00
49194;BME280;35029;50.804;12.866;2023-09-19T04:44:28;97126.09;;;16.25;100.00
49194;BME280;35029;50.804;12.866;2023-09-19T04:46:54;97123.44;;;16.25;100.00
49194;BME280;35029;50.804;12.866;2023-09-19T04:49:20;97137.03;;;16.41;100.00
49194;BME280;35029;50.804;12.866;2023-09-19T04:51:45;97138.25;;;16.33;100.00
49194;BME280;35029;50.804;12.866;2023-09-19T04:54:12;97135.19;;;16.24;100.00
49194;BME280;35029;50.804;12.866;2023-09-19T04:56:38;97144.47;;;16.38;100.00
49194;BME280;35029;50.804;12.866;2023-09-19T04:59:06;97134.03;;;16.37;100.00
49194;BME280;35029;50.804;12.866;2023-09-19T05:01:32;97136.53;;;16.44;100.00
49194;BME280;35029;50.804;12.866;2023-09-19T05:03:58;97136.69;;;16.37;100.00
49194;BME280;35029;50.804;12.866;2023-09-19T05:06:23;97143.50;;;16.45;100.00
49194;BME280;35029;50.804;12.866;2023-09-19T05:08:49;97148.53;;;16.41;100.00
49194;BME280;35029;50.804;12.866;2023-09-19T05:11:20;97152.81;;;16.42;100.00
49194;BME280;35029;50.804;12.866;2023-09-19T05:13:47;97143.06;;;16.31;100.00
49194;BME280;35029;50.804;12.866;2023-09-19T05:16:13;97111.16;;;16.07;100.00
49194;BME280;35029;50.804;12.866;2023-09-19T05:18:38;97142.22;;;16.30;100.00
49194;BME280;35029;50.804;12.866;2023-09-19T05:21:05;97161.28;;;16.34;100.00
49194;BME280;35029;50.804;12.866;2023-09-19T05:23:30;97155.59;;;16.30;100.00
49194;BME280;35029;50.804;12.866;2023-09-19T05:25:56;97165.16;;;16.26;100.00
49194;BME280;35029;50.804;12.866;2023-09-19T05:28:23;97146.38;;;16.21;100.00
49194;BME280;35029;50.804;12.866;2023-09-19T05:30:49;97151.72;;;16.21;100.00
49194;BME280;35029;50.804;12.866;2023-09-19T05:33:15;97160.94;;;16.30;100.00
49194;BME280;35029;50.804;12.866;2023-09-19T05:35:40;97156.16;;;16.32;100.00
49194;BME280;35029;50.804;12.866;2023-09-19T05:38:07;97173.16;;;16.43;100.00
49194;BME280;35029;50.804;12.866;2023-09-19T05:40:38;97183.63;;;16.45;100.00
49194;BME280;35029;50.804;12.866;2023-09-19T05:43:04;97181.19;;;16.43;100.00
49194;BME280;35029;50.804;12.866;2023-09-19T05:45:31;97182.56;;;16.46;100.00
49194;BME280;35029;50.804;12.866;2023-09-19T05:48:07;97175.00;;;16.43;100.00
49194;BME280;35029;50.804;12.866;2023-09-19T05:50:33;97177.22;;;16.46;100.00
49194;BME280;35029;50.804;12.866;2023-09-19T05:52:59;97173.41;;;16.42;100.00
49194;BME280;35029;50.804;12.866;2023-09-19T05:55:25;97188.22;;;16.49;100.00
49194;BME280;35029;50.804;12.866;2023-09-19T05:57:52;97193.38;;;16.56;100.00
49194;BME280;35029;50.804;12.866;2023-09-19T06:00:22;97196.31;;;16.54;100.00
49194;BME280;35029;50.804;12.866;2023-09-19T06:02:55;97200.28;;;16.52;100.00
49194;BME280;35029;50.804;12.866;2023-09-19T06:05:25;97207.88;;;16.60;100.00
49194;BME280;35029;50.804;12.866;2023-09-19T06:07:57;97203.38;;;16.61;100.00
49194;BME280;35029;50.804;12.866;2023-09-19T06:10:27;97208.03;;;16.70;100.00
49194;BME280;35029;50.804;12.866;2023-09-19T06:12:56;97203.31;;;16.78;100.00
49194;BME280;35029;50.804;12.866;2023-09-19T06:15:23;97195.19;;;16.72;100.00
49194;BME280;35029;50.804;12.866;2023-09-19T06:17:52;97206.56;;;16.80;100.00
49194;BME280;35029;50.804;12.866;2023-09-19T06:20:22;97211.41;;;16.83;100.00
49194;BME280;35029;50.804;12.866;2023-09-19T06:22:48;97222.38;;;16.81;100.00
49194;BME280;35029;50.804;12.866;2023-09-19T06:25:15;97207.34;;;16.80;100.00
49194;BME280;35029;50.804;12.866;2023-09-19T06:27:51;97197.94;;;16.78;100.00
49194;BME280;35029;50.804;12.866;2023-09-19T06:30:20;97225.13;;;17.09;100.00
49194;BME280;35029;50.804;12.866;2023-09-19T06:32:47;97231.25;;;17.31;100.00
49194;BME280;35029;50.804;12.866;2023-09-19T06:35:15;97222.75;;;17.34;100.00
49194;BME280;35029;50.804;12.866;2023-09-19T06:37:41;97187.59;;;17.03;100.00
49194;BME280;35029;50.804;12.866;2023-09-19T06:42:34;97199.94;;;16.87;100.00
49194;BME280;35029;50.804;12.866;2023-09-19T06:45:04;97216.16;;;16.98;100.00
49194;BME280;35029;50.804;12.866;2023-09-19T06:47:30;97235.16;;;17.18;100.00
49194;BME280;35029;50.804;12.866;2023-09-19T06:49:56;97228.34;;;17.11;100.00
49194;BME280;35029;50.804;12.866;2023-09-19T06:52:21;97235.09;;;17.13;99.12
49194;BME280;35029;50.804;12.866;2023-09-19T06:54:48;97236.78;;;17.19;99.83
49194;BME280;35029;50.804;12.866;2023-09-19T06:57:16;97251.09;;;17.30;99.95
49194;BME280;35029;50.804;12.866;2023-09-19T06:59:41;97250.75;;;17.49;99.32
49194;BME280;35029;50.804;12.866;2023-09-19T07:02:07;97257.34;;;17.63;99.14
49194;BME280;35029;50.804;12.866;2023-09-19T07:04:33;97250.69;;;17.71;98.35
49194;BME280;35029;50.804;12.866;2023-09-19T07:06:59;97272.34;;;17.64;96.72
49194;BME280;35029;50.804;12.866;2023-09-19T07:09:25;97260.16;;;17.51;96.93
49194;BME280;35029;50.804;12.866;2023-09-19T07:11:53;97263.22;;;17.60;97.49
49194;BME280;35029;50.804;12.866;2023-09-19T07:14:18;97260.53;;;17.60;97.53
49194;BME280;35029;50.804;12.866;2023-09-19T07:16:44;97269.31;;;17.83;95.68
49194;BME280;35029;50.804;12.866;2023-09-19T07:19:10;97259.31;;;18.00;95.12
49194;BME280;35029;50.804;12.866;2023-09-19T07:21:36;97280.25;;;18.03;95.24
49194;BME280;35029;50.804;12.866;2023-09-19T07:24:04;97281.72;;;17.89;95.22
49194;BME280;35029;50.804;12.866;2023-09-19T07:26:30;97284.22;;;17.96;95.47
49194;BME280;35029;50.804;12.866;2023-09-19T07:28:56;97285.31;;;18.00;95.44
49194;BME280;35029;50.804;12.866;2023-09-19T07:31:23;97279.19;;;18.04;95.12
49194;BME280;35029;50.804;12.866;2023-09-19T07:33:49;97290.00;;;18.15;95.50
49194;BME280;35029;50.804;12.866;2023-09-19T07:36:14;97272.25;;;18.08;95.27
49194;BME280;35029;50.804;12.866;2023-09-19T07:38:41;97289.78;;;18.21;94.49
49194;BME280;35029;50.804;12.866;2023-09-19T07:41:08;97289.63;;;18.33;95.54
49194;BME280;35029;50.804;12.866;2023-09-19T07:43:36;97287.50;;;18.35;93.30
49194;BME280;35029;50.804;12.866;2023-09-19T07:46:07;97297.84;;;18.59;88.94
49194;BME280;35029;50.804;12.866;2023-09-19T07:48:35;97287.69;;;18.66;89.06
49194;BME280;35029;50.804;12.866;2023-09-19T07:51:07;97286.72;;;18.78;86.78
49194;BME280;35029;50.804;12.866;2023-09-19T07:53:37;97294.66;;;19.05;87.57
49194;BME280;35029;50.804;12.866;2023-09-19T07:56:07;97297.44;;;19.25;84.69
49194;BME280;35029;50.804;12.866;2023-09-19T07:58:33;97290.00;;;19.48;84.00
49194;BME280;35029;50.804;12.866;2023-09-19T08:01:04;97301.19;;;19.24;82.91
49194;BME280;35029;50.804;12.866;2023-09-19T08:03:29;97277.59;;;19.37;81.48
49194;BME280;35029;50.804;12.866;2023-09-19T08:05:58;97293.00;;;19.57;81.33
49194;BME280;35029;50.804;12.866;2023-09-19T08:08:25;97300.81;;;19.64;81.18
49194;BME280;35029;50.804;12.866;2023-09-19T08:10:55;97267.88;;;19.20;81.90
49194;BME280;35029;50.804;12.866;2023-09-19T08:13:25;97311.16;;;19.29;82.97
49194;BME280;35029;50.804;12.866;2023-09-19T08:15:51;97295.81;;;19.24;82.48
49194;BME280;35029;50.804;12.866;2023-09-19T08:18:20;97310.16;;;19.46;79.48
49194;BME280;35029;50.804;12.866;2023-09-19T08:20:52;97311.09;;;19.14;76.57
49194;BME280;35029;50.804;12.866;2023-09-19T08:23:18;97320.44;;;19.01;77.95
49194;BME280;35029;50.804;12.866;2023-09-19T08:25:46;97320.28;;;18.85;76.94
49194;BME280;35029;50.804;12.866;2023-09-19T08:28:12;97328.03;;;18.77;78.53
49194;BME280;35029;50.804;12.866;2023-09-19T08:30:41;97331.72;;;18.65;79.34
49194;BME280;35029;50.804;12.866;2023-09-19T08:33:06;97301.50;;;18.42;80.28
49194;BME280;35029;50.804;12.866;2023-09-19T08:35:33;97345.53;;;18.47;80.19
49194;BME280;35029;50.804;12.866;2023-09-19T08:37:59;97344.16;;;18.77;77.38
49194;BME280;35029;50.804;12.866;2023-09-19T08:40:32;97335.34;;;19.24;75.32
49194;BME280;35029;50.804;12.866;2023-09-19T08:43:01;97342.72;;;19.54;71.66
49194;BME280;35029;50.804;12.866;2023-09-19T08:45:27;97332.16;;;19.37;70.78
49194;BME280;35029;50.804;12.866;2023-09-19T08:48:07;97339.13;;;19.28;71.34
49194;BME280;35029;50.804;12.866;2023-09-19T08:50:43;97341.47;;;19.19;74.87
49194;BME280;35029;50.804;12.866;2023-09-19T08:53:19;97341.94;;;19.06;74.96
49194;BME280;35029;50.804;12.866;2023-09-19T08:55:50;97339.59;;;19.20;76.23
49194;BME280;35029;50.804;12.866;2023-09-19T08:58:19;97349.53;;;19.19;72.97
49194;BME280;35029;50.804;12.866;2023-09-19T09:00:48;97355.69;;;19.15;72.88
49194;BME280;35029;50.804;12.866;2023-09-19T09:03:16;97349.84;;;18.85;72.97
49194;BME280;35029;50.804;12.866;2023-09-19T09:05:45;97356.13;;;18.96;71.84
49194;BME280;35029;50.804;12.866;2023-09-19T09:08:11;97356.22;;;19.12;69.59
49194;BME280;35029;50.804;12.866;2023-09-19T09:10:38;97356.75;;;19.14;69.71
49194;BME280;35029;50.804;12.866;2023-09-19T09:13:06;97340.34;;;19.05;70.68
49194;BME280;35029;50.804;12.866;2023-09-19T09:15:35;97365.00;;;18.97;70.29
49194;BME280;35029;50.804;12.866;2023-09-19T09:18:02;97364.03;;;18.81;69.78
49194;BME280;35029;50.804;12.866;2023-09-19T09:20:28;97353.75;;;18.67;71.45
49194;BME280;35029;50.804;12.866;2023-09-19T09:22:56;97364.53;;;18.72;71.18
49194;BME280;35029;50.804;12.866;2023-09-19T09:25:55;97384.63;;;18.70;71.21
49194;BME280;35029;50.804;12.866;2023-09-19T09:28:27;97383.22;;;18.57;71.40
49194;BME280;35029;50.804;12.866;2023-09-19T09:30:57;97382.31;;;18.51;71.70
49194;BME280;35029;50.804;12.866;2023-09-19T09:33:24;97353.22;;;18.33;71.86
49194;BME280;35029;50.804;12.866;2023-09-19T09:35:55;97378.78;;;18.46;72.91
49194;BME280;35029;50.804;12.866;2023-09-19T09:38:46;97389.44;;;19.00;70.86
49194;BME280;35029;50.804;12.866;2023-09-19T09:41:15;97391.25;;;19.32;67.66
49194;BME280;35029;50.804;12.866;2023-09-19T09:43:52;97384.41;;;19.67;64.34
49194;BME280;35029;50.804;12.866;2023-09-19T09:46:20;97372.72;;;19.94;63.52
49194;BME280;35029;50.804;12.866;2023-09-19T09:51:39;97384.53;;;19.93;58.41
49194;BME280;35029;50.804;12.866;2023-09-19T09:54:14;97380.88;;;20.40;55.90
49194;BME280;35029;50.804;12.866;2023-09-19T09:56:57;97377.09;;;20.57;56.01
49194;BME280;35029;50.804;12.866;2023-09-19T10:02:34;97394.81;;;20.22;57.22
49194;BME280;35029;50.804;12.866;2023-09-19T10:07:52;97385.16;;;20.36;56.15
49194;BME280;35029;50.804;12.866;2023-09-19T10:10:39;97384.66;;;20.50;54.25
49194;BME280;35029;50.804;12.866;2023-09-19T10:13:06;97394.81;;;20.12;53.79
49194;BME280;35029;50.804;12.866;2023-09-19T10:15:33;97395.31;;;19.98;52.71
49194;BME280;35029;50.804;12.866;2023-09-19T10:18:04;97390.78;;;20.09;53.85
49194;BME280;35029;50.804;12.866;2023-09-19T10:20:33;97404.53;;;20.23;54.56
49194;BME280;35029;50.804;12.866;2023-09-19T10:23:09;97371.16;;;20.29;52.39
49194;BME280;35029;50.804;12.866;2023-09-19T10:25:41;97384.06;;;20.22;51.61
49194;BME280;35029;50.804;12.866;2023-09-19T10:28:08;97378.66;;;20.12;54.75
49194;BME280;35029;50.804;12.866;2023-09-19T10:30:44;97387.81;;;20.10;54.00
49194;BME280;35029;50.804;12.866;2023-09-19T10:33:15;97373.53;;;20.05;51.91
49194;BME280;35029;50.804;12.866;2023-09-19T10:35:46;97399.16;;;20.28;52.49
49194;BME280;35029;50.804;12.866;2023-09-19T10:38:14;97383.06;;;20.74;54.53
49194;BME280;35029;50.804;12.866;2023-09-19T10:40:40;97385.44;;;20.97;57.86
49194;BME280;35029;50.804;12.866;2023-09-19T10:43:15;97386.28;;;20.82;52.98
49194;BME280;35029;50.804;12.866;2023-09-19T10:45:44;97383.00;;;20.64;51.87
49194;BME280;35029;50.804;12.866;2023-09-19T10:48:10;97379.00;;;20.51;51.82
49194;BME280;35029;50.804;12.866;2023-09-19T10:50:51;97385.16;;;20.52;52.66
49194;BME280;35029;50.804;12.866;2023-09-19T10:53:18;97381.94;;;20.29;51.97
49194;BME280;35029;50.804;12.866;2023-09-19T10:55:50;97385.44;;;20.19;53.26
49194;BME280;35029;50.804;12.866;2023-09-19T10:58:32;97388.94;;;20.30;53.35
49194;BME280;35029;50.804;12.866;2023-09-19T11:01:04;97362.28;;;20.34;53.12
49194;BME280;35029;50.804;12.866;2023-09-19T11:03:38;97379.78;;;20.31;52.30
49194;BME280;35029;50.804;12.866;2023-09-19T11:08:54;97367.94;;;20.58;50.51
49194;BME280;35029;50.804;12.866;2023-09-19T11:11:42;97381.94;;;20.50;49.86
49194;BME280;35029;50.804;12.866;2023-09-19T11:30:52;97379.25;;;20.60;49.40
49194;BME280;35029;50.804;12.866;2023-09-19T11:33:25;97390.03;;;20.55;49.76
49194;BME280;35029;50.804;12.866;2023-09-19T11:36:09;97382.22;;;20.27;49.11
49194;BME280;35029;50.804;12.866;2023-09-19T11:49:18;97368.66;;;21.46;47.62
49194;BME280;35029;50.804;12.866;2023-09-19T11:51:50;97372.78;;;21.07;47.47
49194;BME280;35029;50.804;12.866;2023-09-19T11:54:19;97367.38;;;21.23;47.22
49194;BME280;35029;50.804;12.866;2023-09-19T11:56:51;97370.63;;;21.15;47.48
49194;BME280;35029;50.804;12.866;2023-09-19T11:59:30;97371.19;;;21.01;46.89
49194;BME280;35029;50.804;12.866;2023-09-19T12:02:03;97376.81;;;21.10;46.78
49194;BME280;35029;50.804;12.866;2023-09-19T12:04:43;97371.69;;;21.08;46.32
49194;BME280;35029;50.804;12.866;2023-09-19T12:07:12;97345.84;;;21.07;44.48
49194;BME280;35029;50.804;12.866;2023-09-19T12:09:48;97369.75;;;21.35;43.74
49194;BME280;35029;50.804;12.866;2023-09-19T12:12:20;97368.47;;;21.11;44.92
49194;BME280;35029;50.804;12.866;2023-09-19T12:14:48;97363.06;;;21.22;44.24
49194;BME280;35029;50.804;12.866;2023-09-19T12:17:13;97361.94;;;21.28;42.59
49194;BME280;35029;50.804;12.866;2023-09-19T12:19:49;97359.81;;;21.20;43.04
49194;BME280;35029;50.804;12.866;2023-09-19T12:22:15;97358.72;;;21.26;42.94
49194;BME280;35029;50.804;12.866;2023-09-19T12:24:43;97367.84;;;21.40;42.72
49194;BME280;35029;50.804;12.866;2023-09-19T12:27:09;97362.69;;;21.49;43.76
49194;BME280;35029;50.804;12.866;2023-09-19T12:29:45;97358.09;;;21.65;45.40
49194;BME280;35029;50.804;12.866;2023-09-19T12:32:11;97363.44;;;21.70;44.62
49194;BME280;35029;50.804;12.866;2023-09-19T12:34:36;97362.31;;;21.82;44.70
49194;BME280;35029;50.804;12.866;2023-09-19T12:37:11;97360.72;;;21.75;45.57
49194;BME280;35029;50.804;12.866;2023-09-19T12:39:39;97356.53;;;21.33;45.56
49194;BME280;35029;50.804;12.866;2023-09-19T12:42:08;97332.72;;;20.70;46.69
49194;BME280;35029;50.804;12.866;2023-09-19T12:44:36;97359.81;;;21.20;47.49
49194;BME280;35029;50.804;12.866;2023-09-19T12:47:11;97353.84;;;21.28;45.80
49194;BME280;35029;50.804;12.866;2023-09-19T12:50:06;97355.19;;;21.31;47.56
49194;BME280;35029;50.804;12.866;2023-09-19T12:52:38;97337.19;;;21.16;46.91
49194;BME280;35029;50.804;12.866;2023-09-19T12:55:05;97351.78;;;20.99;46.94
49194;BME280;35029;50.804;12.866;2023-09-19T12:57:33;97340.50;;;20.71;48.34
49194;BME280;35029;50.804;12.866;2023-09-19T13:00:03;97352.34;;;20.70;47.16
49194;BME280;35029;50.804;12.866;2023-09-19T13:02:31;97341.22;;;21.23;49.30
49194;BME280;35029;50.804;12.866;2023-09-19T13:04:57;97342.97;;;21.64;44.56
49194;BME280;35029;50.804;12.866;2023-09-19T13:07:42;97355.06;;;21.72;43.42
49194;BME280;35029;50.804;12.866;2023-09-19T13:10:15;97349.31;;;21.94;42.39
49194;BME280;35029;50.804;12.866;2023-09-19T13:12:42;97346.44;;;21.75;42.19
49194;BME280;35029;50.804;12.866;2023-09-19T13:15:13;97340.34;;;21.38;43.34
49194;BME280;35029;50.804;12.866;2023-09-19T13:17:49;97354.91;;;21.37;42.97
49194;BME280;35029;50.804;12.866;2023-09-19T13:20:25;97348.47;;;21.28;43.74
49194;BME280;35029;50.804;12.866;2023-09-19T13:22:55;97352.03;;;21.08;43.98
49194;BME280;35029;50.804;12.866;2023-09-19T13:25:29;97355.75;;;21.33;46.38
49194;BME280;35029;50.804;12.866;2023-09-19T13:27:56;97356.25;;;21.45;44.63
49194;BME280;35029;50.804;12.866;2023-09-19T13:30:26;97352.75;;;21.39;44.19
49194;BME280;35029;50.804;12.866;2023-09-19T13:33:09;97330.63;;;21.48;44.77
49194;BME280;35029;50.804;12.866;2023-09-19T13:35:36;97342.25;;;21.98;44.32
49194;BME280;35029;50.804;12.866;2023-09-19T13:38:04;97322.78;;;22.06;42.29
49194;BME280;35029;50.804;12.866;2023-09-19T13:40:29;97341.50;;;22.32;43.19
49194;BME280;35029;50.804;12.866;2023-09-19T13:42:57;97352.31;;;22.27;42.14
49194;BME280;35029;50.804;12.866;2023-09-19T13:45:22;97339.63;;;22.27;42.39